sensor_id;sensor_type;location;lat;lon;timestamp;P1;durP1;ratioP1;P2;durP2;ratioP2
15287;SDS011;7745;48.708;9.026;2024-03-22T00:02:28;13.77;;;12.30;;
15287;SDS011;7745;48.708;9.026;2024-03-22T01:18:37;16.10;;;11.60;;
15287;SDS011;7745;48.708;9.026;2024-03-22T01:21:42;13.90;;;11.47;;
15287;SDS011;7745;48.708;9.026;2024-03-22T01:25:15;12.53;;;11.23;;
15287;SDS011;7745;48.708;9.026;2024-03-22T01:28:28;16.40;;;12.10;;
15287;SDS011;7745;48.708;9.026;2024-03-22T01:39:03;15.37;;;12.03;;
15287;SDS011;7745;48.708;9.026;2024-03-22T01:42:22;14.43;;;12.27;;
15287;SDS011;7745;48.708;9.026;2024-03-22T01:49:27;17.00;;;12.07;;
15287;SDS011;7745;48.708;9.026;2024-03-22T01:54:10;14.43;;;12.07;;
15287;SDS011;7745;48.708;9.026;2024-03-22T01:56:20;14.23;;;11.17;;
15287;SDS011;7745;48.708;9.026;2024-03-22T01:59:24;15.17;;;12.53;;
15287;SDS011;7745;48.708;9.026;2024-03-22T02:02:17;17.97;;;12.80;;
15287;SDS011;7745;48.708;9.026;2024-03-22T02:08:26;16.63;;;13.63;;
15287;SDS011;7745;48.708;9.026;2024-03-22T02:14:45;17.33;;;12.93;;
15287;SDS011;7745;48.708;9.026;2024-03-22T02:21:22;15.07;;;12.00;;
15287;SDS011;7745;48.708;9.026;2024-03-22T02:24:30;17.37;;;12.30;;
15287;SDS011;7745;48.708;9.026;2024-03-22T02:34:01;15.43;;;12.17;;
15287;SDS011;7745;48.708;9.026;2024-03-22T02:37:30;15.43;;;11.90;;
15287;SDS011;7745;48.708;9.026;2024-03-22T02:50:31;16.13;;;11.70;;
15287;SDS011;7745;48.708;9.026;2024-03-22T02:54:09;16.73;;;11.30;;
15287;SDS011;7745;48.708;9.026;2024-03-22T02:57:18;14.40;;;12.13;;
15287;SDS011;7745;48.708;9.026;2024-03-22T03:10:40;16.10;;;11.87;;
15287;SDS011;7745;48.708;9.026;2024-03-22T03:14:09;13.87;;;11.83;;
15287;SDS011;7745;48.708;9.026;2024-03-22T03:17:07;17.10;;;12.50;;
15287;SDS011;7745;48.708;9.026;2024-03-22T03:37:34;15.60;;;12.30;;
15287;SDS011;7745;48.708;9.026;2024-03-22T03:44:09;13.93;;;12.20;;
15287;SDS011;7745;48.708;9.026;2024-03-22T03:50:25;16.50;;;11.57;;
15287;SDS011;7745;48.708;9.026;2024-03-22T04:00:24;16.23;;;11.63;;
15287;SDS011;7745;48.708;9.026;2024-03-22T04:04:30;20.67;;;17.53;;
15287;SDS011;7745;48.708;9.026;2024-03-22T04:20:27;14.03;;;11.27;;
15287;SDS011;7745;48.708;9.026;2024-03-22T04:26:50;14.37;;;11.80;;
15287;SDS011;7745;48.708;9.026;2024-03-22T04:37:29;17.00;;;11.93;;
15287;SDS011;7745;48.708;9.026;2024-03-22T04:40:50;15.73;;;12.10;;
15287;SDS011;7745;48.708;9.026;2024-03-22T04:46:38;16.90;;;11.70;;
15287;SDS011;7745;48.708;9.026;2024-03-22T04:48:26;15.67;;;12.33;;
15287;SDS011;7745;48.708;9.026;2024-03-22T04:50:49;17.23;;;12.53;;
15287;SDS011;7745;48.708;9.026;2024-03-22T05:01:02;13.97;;;11.87;;
15287;SDS011;7745;48.708;9.026;2024-03-22T05:07:22;15.03;;;12.40;;
15287;SDS011;7745;48.708;9.026;2024-03-22T05:10:42;14.63;;;12.97;;
15287;SDS011;7745;48.708;9.026;2024-03-22T05:13:36;15.63;;;13.00;;
15287;SDS011;7745;48.708;9.026;2024-03-22T05:16:32;16.17;;;13.13;;
15287;SDS011;7745;48.708;9.026;2024-03-22T05:26:17;17.63;;;13.40;;
15287;SDS011;7745;48.708;9.026;2024-03-22T05:29:42;15.80;;;12.07;;
15287;SDS011;7745;48.708;9.026;2024-03-22T05:36:41;16.50;;;13.80;;
15287;SDS011;7745;48.708;9.026;2024-03-22T05:39:24;19.10;;;13.67;;
15287;SDS011;7745;48.708;9.026;2024-03-22T05:41:59;15.83;;;13.33;;
15287;SDS011;7745;48.708;9.026;2024-03-22T05:44:48;18.00;;;14.93;;
15287;SDS011;7745;48.708;9.026;2024-03-22T05:47:31;17.30;;;13.63;;
15287;SDS011;7745;48.708;9.026;2024-03-22T05:50:16;16.57;;;13.23;;
15287;SDS011;7745;48.708;9.026;2024-03-22T05:53:00;18.23;;;12.90;;
15287;SDS011;7745;48.708;9.026;2024-03-22T05:55:49;15.47;;;12.97;;
15287;SDS011;7745;48.708;9.026;2024-03-22T05:58:35;22.10;;;12.50;;
15287;SDS011;7745;48.708;9.026;2024-03-22T06:01:24;15.07;;;12.60;;
15287;SDS011;7745;48.708;9.026;2024-03-22T06:04:05;15.83;;;12.57;;
15287;SDS011;7745;48.708;9.026;2024-03-22T06:07:08;16.60;;;13.37;;
15287;SDS011;7745;48.708;9.026;2024-03-22T06:09:35;17.00;;;12.30;;
15287;SDS011;7745;48.708;9.026;2024-03-22T06:12:10;20.37;;;12.40;;
15287;SDS011;7745;48.708;9.026;2024-03-22T06:17:42;16.10;;;11.87;;
15287;SDS011;7745;48.708;9.026;2024-03-22T06:20:11;17.93;;;12.10;;
15287;SDS011;7745;48.708;9.026;2024-03-22T06:22:56;13.57;;;11.50;;
15287;SDS011;7745;48.708;9.026;2024-03-22T06:25:31;14.77;;;12.20;;
15287;SDS011;7745;48.708;9.026;2024-03-22T06:31:32;16.47;;;12.30;;
15287;SDS011;7745;48.708;9.026;2024-03-22T06:44:20;15.90;;;10.87;;
15287;SDS011;7745;48.708;9.026;2024-03-22T07:01:12;17.73;;;12.30;;
15287;SDS011;7745;48.708;9.026;2024-03-22T07:08:13;15.37;;;12.27;;
15287;SDS011;7745;48.708;9.026;2024-03-22T07:11:14;18.60;;;11.87;;
15287;SDS011;7745;48.708;9.026;2024-03-22T07:21:20;20.83;;;13.77;;
15287;SDS011;7745;48.708;9.026;2024-03-22T07:23:58;21.70;;;13.73;;
15287;SDS011;7745;48.708;9.026;2024-03-22T07:26:49;17.80;;;13.43;;
15287;SDS011;7745;48.708;9.026;2024-03-22T07:32:18;17.97;;;13.70;;
15287;SDS011;7745;48.708;9.026;2024-03-22T07:34:45;19.80;;;14.00;;
15287;SDS011;7745;48.708;9.026;2024-03-22T07:37:16;17.33;;;13.97;;
15287;SDS011;7745;48.708;9.026;2024-03-22T07:40:03;18.43;;;12.73;;
15287;SDS011;7745;48.708;9.026;2024-03-22T07:42:30;20.57;;;13.37;;
15287;SDS011;7745;48.708;9.026;2024-03-22T07:44:57;20.40;;;13.50;;
15287;SDS011;7745;48.708;9.026;2024-03-22T07:47:23;20.80;;;13.17;;
15287;SDS011;7745;48.708;9.026;2024-03-22T07:49:50;20.63;;;13.67;;
15287;SDS011;7745;48.708;9.026;2024-03-22T07:52:17;24.13;;;12.43;;
15287;SDS011;7745;48.708;9.026;2024-03-22T07:54:44;16.47;;;11.87;;
15287;SDS011;7745;48.708;9.026;2024-03-22T07:57:10;16.20;;;11.30;;
15287;SDS011;7745;48.708;9.026;2024-03-22T07:59:37;17.07;;;11.53;;
15287;SDS011;7745;48.708;9.026;2024-03-22T08:02:03;19.67;;;10.90;;
15287;SDS011;7745;48.708;9.026;2024-03-22T08:04:31;16.13;;;11.40;;
15287;SDS011;7745;48.708;9.026;2024-03-22T08:06:57;22.70;;;11.07;;
15287;SDS011;7745;48.708;9.026;2024-03-22T08:09:25;18.90;;;9.90;;
15287;SDS011;7745;48.708;9.026;2024-03-22T08:11:51;14.63;;;11.20;;
15287;SDS011;7745;48.708;9.026;2024-03-22T08:14:18;16.07;;;10.23;;
15287;SDS011;7745;48.708;9.026;2024-03-22T08:16:43;17.10;;;10.37;;
15287;SDS011;7745;48.708;9.026;2024-03-22T08:19:10;17.77;;;11.03;;
15287;SDS011;7745;48.708;9.026;2024-03-22T08:21:36;15.03;;;9.53;;
15287;SDS011;7745;48.708;9.026;2024-03-22T08:24:03;14.30;;;10.07;;
15287;SDS011;7745;48.708;9.026;2024-03-22T08:26:31;16.37;;;10.63;;
15287;SDS011;7745;48.708;9.026;2024-03-22T08:28:58;15.33;;;10.10;;
15287;SDS011;7745;48.708;9.026;2024-03-22T08:31:24;12.60;;;9.83;;
15287;SDS011;7745;48.708;9.026;2024-03-22T08:33:53;14.13;;;10.07;;
15287;SDS011;7745;48.708;9.026;2024-03-22T08:36:27;15.97;;;9.90;;
15287;SDS011;7745;48.708;9.026;2024-03-22T08:39:01;15.27;;;10.33;;
15287;SDS011;7745;48.708;9.026;2024-03-22T08:51:46;15.97;;;9.33;;
15287;SDS011;7745;48.708;9.026;2024-03-22T08:54:30;15.77;;;9.00;;
15287;SDS011;7745;48.708;9.026;2024-03-22T08:57:12;11.27;;;9.03;;
15287;SDS011;7745;48.708;9.026;2024-03-22T08:59:54;13.23;;;9.27;;
15287;SDS011;7745;48.708;9.026;2024-03-22T09:02:35;14.33;;;8.57;;
15287;SDS011;7745;48.708;9.026;2024-03-22T09:05:07;14.13;;;8.47;;
15287;SDS011;7745;48.708;9.026;2024-03-22T09:07:35;10.63;;;8.47;;
15287;SDS011;7745;48.708;9.026;2024-03-22T09:10:02;8.43;;;7.53;;
15287;SDS011;7745;48.708;9.026;2024-03-22T09:12:29;10.43;;;7.90;;
15287;SDS011;7745;48.708;9.026;2024-03-22T09:15:01;13.53;;;7.73;;
15287;SDS011;7745;48.708;9.026;2024-03-22T09:17:28;9.30;;;6.53;;
15287;SDS011;7745;48.708;9.026;2024-03-22T09:19:55;10.00;;;7.63;;
15287;SDS011;7745;48.708;9.026;2024-03-22T09:22:21;10.63;;;7.13;;
15287;SDS011;7745;48.708;9.026;2024-03-22T09:24:49;9.83;;;7.17;;
15287;SDS011;7745;48.708;9.026;2024-03-22T09:27:15;10.07;;;6.47;;
15287;SDS011;7745;48.708;9.026;2024-03-22T09:29:42;9.53;;;6.50;;
15287;SDS011;7745;48.708;9.026;2024-03-22T09:32:08;7.93;;;6.37;;
15287;SDS011;7745;48.708;9.026;2024-03-22T09:34:35;9.53;;;6.87;;
15287;SDS011;7745;48.708;9.026;2024-03-22T09:37:01;9.80;;;6.40;;
15287;SDS011;7745;48.708;9.026;2024-03-22T09:39:28;11.40;;;6.43;;
15287;SDS011;7745;48.708;9.026;2024-03-22T09:41:56;9.77;;;7.50;;
15287;SDS011;7745;48.708;9.026;2024-03-22T09:44:23;9.20;;;7.07;;
15287;SDS011;7745;48.708;9.026;2024-03-22T09:46:52;10.97;;;7.30;;
15287;SDS011;7745;48.708;9.026;2024-03-22T09:49:20;13.13;;;7.40;;
15287;SDS011;7745;48.708;9.026;2024-03-22T09:51:47;12.10;;;7.93;;
15287;SDS011;7745;48.708;9.026;2024-03-22T09:54:14;11.03;;;7.37;;
15287;SDS011;7745;48.708;9.026;2024-03-22T09:56:40;9.57;;;7.27;;
15287;SDS011;7745;48.708;9.026;2024-03-22T09:59:09;10.00;;;8.03;;
15287;SDS011;7745;48.708;9.026;2024-03-22T10:01:36;7.60;;;6.73;;
15287;SDS011;7745;48.708;9.026;2024-03-22T10:04:17;12.27;;;7.50;;
15287;SDS011;7745;48.708;9.026;2024-03-22T10:06:44;10.53;;;7.23;;
15287;SDS011;7745;48.708;9.026;2024-03-22T10:09:12;8.77;;;6.37;;
15287;SDS011;7745;48.708;9.026;2024-03-22T10:11:38;8.30;;;6.87;;
15287;SDS011;7745;48.708;9.026;2024-03-22T10:14:05;7.93;;;7.13;;
15287;SDS011;7745;48.708;9.026;2024-03-22T10:16:36;7.40;;;6.13;;
15287;SDS011;7745;48.708;9.026;2024-03-22T10:19:06;7.10;;;5.03;;
15287;SDS011;7745;48.708;9.026;2024-03-22T10:21:32;5.10;;;4.40;;
15287;SDS011;7745;48.708;9.026;2024-03-22T10:23:58;5.80;;;4.40;;
15287;SDS011;7745;48.708;9.026;2024-03-22T10:26:24;7.47;;;4.50;;
15287;SDS011;7745;48.708;9.026;2024-03-22T10:28:51;8.30;;;4.87;;
15287;SDS011;7745;48.708;9.026;2024-03-22T10:31:18;6.77;;;4.53;;
15287;SDS011;7745;48.708;9.026;2024-03-22T10:33:46;9.03;;;5.30;;
15287;SDS011;7745;48.708;9.026;2024-03-22T10:36:13;6.27;;;5.07;;
15287;SDS011;7745;48.708;9.026;2024-03-22T10:38:43;7.27;;;4.90;;
15287;SDS011;7745;48.708;9.026;2024-03-22T10:41:10;10.10;;;5.27;;
15287;SDS011;7745;48.708;9.026;2024-03-22T10:43:37;9.93;;;5.97;;
15287;SDS011;7745;48.708;9.026;2024-03-22T10:46:03;8.30;;;6.00;;
15287;SDS011;7745;48.708;9.026;2024-03-22T10:48:32;8.33;;;5.27;;
15287;SDS011;7745;48.708;9.026;2024-03-22T10:50:59;7.70;;;5.10;;
15287;SDS011;7745;48.708;9.026;2024-03-22T10:53:27;8.07;;;5.30;;
15287;SDS011;7745;48.708;9.026;2024-03-22T10:55:58;7.00;;;5.60;;
15287;SDS011;7745;48.708;9.026;2024-03-22T10:58:25;11.87;;;6.53;;
15287;SDS011;7745;48.708;9.026;2024-03-22T11:00:52;7.93;;;5.87;;
15287;SDS011;7745;48.708;9.026;2024-03-22T11:03:19;7.77;;;6.03;;
15287;SDS011;7745;48.708;9.026;2024-03-22T11:05:48;12.23;;;6.50;;
15287;SDS011;7745;48.708;9.026;2024-03-22T11:08:22;7.83;;;6.13;;
15287;SDS011;7745;48.708;9.026;2024-03-22T11:10:50;9.50;;;5.80;;
15287;SDS011;7745;48.708;9.026;2024-03-22T11:13:16;7.10;;;5.17;;
15287;SDS011;7745;48.708;9.026;2024-03-22T11:15:47;5.80;;;4.43;;
15287;SDS011;7745;48.708;9.026;2024-03-22T11:18:14;6.30;;;4.03;;
15287;SDS011;7745;48.708;9.026;2024-03-22T11:20:41;7.27;;;4.20;;
15287;SDS011;7745;48.708;9.026;2024-03-22T11:23:19;7.43;;;4.10;;
15287;SDS011;7745;48.708;9.026;2024-03-22T11:25:45;7.60;;;3.30;;
15287;SDS011;7745;48.708;9.026;2024-03-22T11:28:11;6.80;;;3.37;;
15287;SDS011;7745;48.708;9.026;2024-03-22T11:30:39;7.97;;;3.60;;
15287;SDS011;7745;48.708;9.026;2024-03-22T11:33:06;5.57;;;3.47;;
15287;SDS011;7745;48.708;9.026;2024-03-22T11:35:33;6.33;;;4.27;;
15287;SDS011;7745;48.708;9.026;2024-03-22T11:38:02;5.53;;;3.67;;
15287;SDS011;7745;48.708;9.026;2024-03-22T11:40:31;8.47;;;3.60;;
15287;SDS011;7745;48.708;9.026;2024-03-22T11:42:58;4.93;;;3.33;;
15287;SDS011;7745;48.708;9.026;2024-03-22T11:45:27;3.73;;;3.00;;
15287;SDS011;7745;48.708;9.026;2024-03-22T11:47:53;4.33;;;3.40;;
15287;SDS011;7745;48.708;9.026;2024-03-22T11:50:20;7.13;;;3.60;;
15287;SDS011;7745;48.708;9.026;2024-03-22T11:52:46;8.33;;;3.80;;
15287;SDS011;7745;48.708;9.026;2024-03-22T11:55:13;6.17;;;3.40;;
15287;SDS011;7745;48.708;9.026;2024-03-22T11:57:41;8.80;;;3.77;;
15287;SDS011;7745;48.708;9.026;2024-03-22T12:00:14;6.23;;;3.50;;
15287;SDS011;7745;48.708;9.026;2024-03-22T12:02:42;5.10;;;3.70;;
15287;SDS011;7745;48.708;9.026;2024-03-22T12:05:10;6.57;;;3.00;;
15287;SDS011;7745;48.708;9.026;2024-03-22T12:07:36;4.03;;;2.70;;
15287;SDS011;7745;48.708;9.026;2024-03-22T12:10:03;3.63;;;3.07;;
15287;SDS011;7745;48.708;9.026;2024-03-22T12:12:29;5.87;;;3.03;;
15287;SDS011;7745;48.708;9.026;2024-03-22T12:14:58;6.13;;;2.53;;
15287;SDS011;7745;48.708;9.026;2024-03-22T12:17:24;5.10;;;2.60;;
15287;SDS011;7745;48.708;9.026;2024-03-22T12:19:50;6.37;;;3.43;;
15287;SDS011;7745;48.708;9.026;2024-03-22T12:22:17;5.83;;;3.20;;
15287;SDS011;7745;48.708;9.026;2024-03-22T12:24:44;4.83;;;3.03;;
15287;SDS011;7745;48.708;9.026;2024-03-22T12:27:11;6.83;;;3.10;;
15287;SDS011;7745;48.708;9.026;2024-03-22T12:29:39;5.77;;;3.27;;
15287;SDS011;7745;48.708;9.026;2024-03-22T12:32:06;4.27;;;2.87;;
15287;SDS011;7745;48.708;9.026;2024-03-22T12:34:35;4.37;;;3.53;;
15287;SDS011;7745;48.708;9.026;2024-03-22T12:37:01;5.23;;;3.57;;
15287;SDS011;7745;48.708;9.026;2024-03-22T12:39:27;6.37;;;4.37;;
15287;SDS011;7745;48.708;9.026;2024-03-22T12:41:53;7.20;;;4.37;;
15287;SDS011;7745;48.708;9.026;2024-03-22T12:44:20;5.03;;;3.73;;
15287;SDS011;7745;48.708;9.026;2024-03-22T12:46:48;5.73;;;3.93;;
15287;SDS011;7745;48.708;9.026;2024-03-22T12:50:13;5.57;;;3.87;;
15287;SDS011;7745;48.708;9.026;2024-03-22T12:52:40;5.80;;;3.87;;
15287;SDS011;7745;48.708;9.026;2024-03-22T12:55:06;4.77;;;3.63;;
15287;SDS011;7745;48.708;9.026;2024-03-22T12:57:34;5.57;;;3.97;;
15287;SDS011;7745;48.708;9.026;2024-03-22T12:59:59;8.23;;;4.17;;
15287;SDS011;7745;48.708;9.026;2024-03-22T13:02:28;4.28;;;3.38;;
15287;SDS011;7745;48.708;9.026;2024-03-22T13:04:54;5.70;;;3.28;;
15287;SDS011;7745;48.708;9.026;2024-03-22T13:07:22;6.18;;;3.15;;
15287;SDS011;7745;48.708;9.026;2024-03-22T13:09:48;3.67;;;3.13;;
15287;SDS011;7745;48.708;9.026;2024-03-22T13:12:16;4.38;;;2.85;;
15287;SDS011;7745;48.708;9.026;2024-03-22T13:14:43;5.68;;;2.92;;
15287;SDS011;7745;48.708;9.026;2024-03-22T13:17:10;4.28;;;2.85;;
15287;SDS011;7745;48.708;9.026;2024-03-22T13:19:36;3.47;;;2.70;;
15287;SDS011;7745;48.708;9.026;2024-03-22T13:22:02;4.57;;;2.55;;
15287;SDS011;7745;48.708;9.026;2024-03-22T13:24:30;6.63;;;3.03;;
15287;SDS011;7745;48.708;9.026;2024-03-22T13:26:56;5.60;;;2.78;;
15287;SDS011;7745;48.708;9.026;2024-03-22T13:29:22;6.57;;;3.08;;
15287;SDS011;7745;48.708;9.026;2024-03-22T13:31:49;6.28;;;2.53;;
15287;SDS011;7745;48.708;9.026;2024-03-22T13:34:15;4.20;;;2.75;;
15287;SDS011;7745;48.708;9.026;2024-03-22T13:36:41;4.47;;;3.22;;
15287;SDS011;7745;48.708;9.026;2024-03-22T13:39:07;5.30;;;3.17;;
15287;SDS011;7745;48.708;9.026;2024-03-22T13:41:36;5.70;;;3.47;;
15287;SDS011;7745;48.708;9.026;2024-03-22T13:44:02;4.50;;;3.07;;
15287;SDS011;7745;48.708;9.026;2024-03-22T13:46:31;4.10;;;3.00;;
15287;SDS011;7745;48.708;9.026;2024-03-22T13:48:57;4.33;;;2.90;;
15287;SDS011;7745;48.708;9.026;2024-03-22T13:51:23;5.82;;;2.88;;
15287;SDS011;7745;48.708;9.026;2024-03-22T13:53:53;5.32;;;3.13;;
15287;SDS011;7745;48.708;9.026;2024-03-22T13:56:20;4.30;;;2.70;;
15287;SDS011;7745;48.708;9.026;2024-03-22T13:58:47;2.83;;;2.47;;
15287;SDS011;7745;48.708;9.026;2024-03-22T14:01:14;4.10;;;2.60;;
15287;SDS011;7745;48.708;9.026;2024-03-22T14:03:40;4.38;;;2.50;;
15287;SDS011;7745;48.708;9.026;2024-03-22T14:06:40;4.75;;;2.42;;
15287;SDS011;7745;48.708;9.026;2024-03-22T14:09:07;3.58;;;2.33;;
15287;SDS011;7745;48.708;9.026;2024-03-22T14:11:35;2.40;;;2.05;;
15287;SDS011;7745;48.708;9.026;2024-03-22T14:14:02;2.55;;;1.92;;
15287;SDS011;7745;48.708;9.026;2024-03-22T14:16:29;5.97;;;2.22;;
15287;SDS011;7745;48.708;9.026;2024-03-22T14:18:55;4.30;;;2.30;;
15287;SDS011;7745;48.708;9.026;2024-03-22T14:21:22;4.95;;;2.22;;
15287;SDS011;7745;48.708;9.026;2024-03-22T14:23:48;6.25;;;2.15;;
15287;SDS011;7745;48.708;9.026;2024-03-22T14:26:15;3.63;;;1.92;;
15287;SDS011;7745;48.708;9.026;2024-03-22T14:28:42;2.42;;;1.95;;
15287;SDS011;7745;48.708;9.026;2024-03-22T14:31:11;4.80;;;1.63;;
15287;SDS011;7745;48.708;9.026;2024-03-22T14:33:37;3.25;;;1.00;;
15287;SDS011;7745;48.708;9.026;2024-03-22T14:36:05;2.90;;;1.05;;
15287;SDS011;7745;48.708;9.026;2024-03-22T14:38:32;2.15;;;0.82;;
15287;SDS011;7745;48.708;9.026;2024-03-22T14:40:59;2.38;;;1.00;;
15287;SDS011;7745;48.708;9.026;2024-03-22T14:43:26;2.80;;;1.00;;
15287;SDS011;7745;48.708;9.026;2024-03-22T14:45:59;3.20;;;2.10;;
15287;SDS011;7745;48.708;9.026;2024-03-22T14:48:29;3.58;;;2.30;;
15287;SDS011;7745;48.708;9.026;2024-03-22T14:50:56;3.47;;;2.10;;
15287;SDS011;7745;48.708;9.026;2024-03-22T14:53:22;4.90;;;2.33;;
15287;SDS011;7745;48.708;9.026;2024-03-22T14:55:53;7.17;;;2.10;;
15287;SDS011;7745;48.708;9.026;2024-03-22T14:58:23;2.50;;;1.63;;
15287;SDS011;7745;48.708;9.026;2024-03-22T15:00:50;5.67;;;1.50;;
15287;SDS011;7745;48.708;9.026;2024-03-22T15:03:17;4.23;;;1.27;;
15287;SDS011;7745;48.708;9.026;2024-03-22T15:05:45;2.53;;;1.23;;
15287;SDS011;7745;48.708;9.026;2024-03-22T15:08:14;2.17;;;1.30;;
15287;SDS011;7745;48.708;9.026;2024-03-22T15:10:41;5.93;;;1.50;;
15287;SDS011;7745;48.708;9.026;2024-03-22T15:13:10;4.00;;;1.40;;
15287;SDS011;7745;48.708;9.026;2024-03-22T15:15:38;2.67;;;1.30;;
15287;SDS011;7745;48.708;9.026;2024-03-22T15:18:04;3.37;;;1.17;;
15287;SDS011;7745;48.708;9.026;2024-03-22T15:20:31;4.23;;;1.30;;
15287;SDS011;7745;48.708;9.026;2024-03-22T15:22:59;1.27;;;1.13;;
15287;SDS011;7745;48.708;9.026;2024-03-22T15:25:25;1.57;;;1.20;;
15287;SDS011;7745;48.708;9.026;2024-03-22T15:27:51;2.70;;;1.30;;
15287;SDS011;7745;48.708;9.026;2024-03-22T15:30:18;1.13;;;1.03;;
15287;SDS011;7745;48.708;9.026;2024-03-22T15:32:44;2.07;;;1.30;;
15287;SDS011;7745;48.708;9.026;2024-03-22T15:35:11;3.63;;;1.13;;
15287;SDS011;7745;48.708;9.026;2024-03-22T15:37:38;2.57;;;1.17;;
15287;SDS011;7745;48.708;9.026;2024-03-22T15:40:11;6.77;;;1.40;;
15287;SDS011;7745;48.708;9.026;2024-03-22T15:42:40;4.07;;;1.23;;
15287;SDS011;7745;48.708;9.026;2024-03-22T15:45:07;2.30;;;1.27;;
15287;SDS011;7745;48.708;9.026;2024-03-22T15:47:33;2.10;;;1.20;;
15287;SDS011;7745;48.708;9.026;2024-03-22T15:50:00;1.83;;;1.20;;
15287;SDS011;7745;48.708;9.026;2024-03-22T15:52:29;3.67;;;1.50;;
15287;SDS011;7745;48.708;9.026;2024-03-22T15:55:20;3.30;;;1.20;;
15287;SDS011;7745;48.708;9.026;2024-03-22T15:58:00;1.97;;;1.60;;
15287;SDS011;7745;48.708;9.026;2024-03-22T16:00:27;2.73;;;1.50;;
15287;SDS011;7745;48.708;9.026;2024-03-22T16:02:53;3.60;;;1.23;;
15287;SDS011;7745;48.708;9.026;2024-03-22T16:05:21;5.33;;;1.60;;
15287;SDS011;7745;48.708;9.026;2024-03-22T16:07:46;1.60;;;1.20;;
15287;SDS011;7745;48.708;9.026;2024-03-22T16:10:14;1.60;;;1.00;;
15287;SDS011;7745;48.708;9.026;2024-03-22T16:12:42;3.40;;;1.47;;
15287;SDS011;7745;48.708;9.026;2024-03-22T16:15:09;3.93;;;1.50;;
15287;SDS011;7745;48.708;9.026;2024-03-22T16:17:35;5.03;;;2.00;;
15287;SDS011;7745;48.708;9.026;2024-03-22T16:20:01;4.10;;;0.90;;
15287;SDS011;7745;48.708;9.026;2024-03-22T16:22:28;1.77;;;1.00;;
15287;SDS011;7745;48.708;9.026;2024-03-22T16:24:54;1.97;;;1.13;;
15287;SDS011;7745;48.708;9.026;2024-03-22T16:27:21;2.17;;;1.10;;
15287;SDS011;7745;48.708;9.026;2024-03-22T16:29:48;2.90;;;1.20;;
15287;SDS011;7745;48.708;9.026;2024-03-22T16:32:14;4.20;;;2.30;;
15287;SDS011;7745;48.708;9.026;2024-03-22T16:34:41;3.87;;;1.93;;
15287;SDS011;7745;48.708;9.026;2024-03-22T16:37:07;8.47;;;2.70;;
15287;SDS011;7745;48.708;9.026;2024-03-22T16:39:34;5.17;;;2.83;;
15287;SDS011;7745;48.708;9.026;2024-03-22T16:42:00;4.43;;;1.90;;
15287;SDS011;7745;48.708;9.026;2024-03-22T16:44:28;3.87;;;1.70;;
15287;SDS011;7745;48.708;9.026;2024-03-22T16:46:54;3.90;;;1.47;;
15287;SDS011;7745;48.708;9.026;2024-03-22T16:49:21;5.37;;;1.70;;
15287;SDS011;7745;48.708;9.026;2024-03-22T16:51:47;3.40;;;1.60;;
15287;SDS011;7745;48.708;9.026;2024-03-22T16:54:13;1.93;;;1.30;;
15287;SDS011;7745;48.708;9.026;2024-03-22T16:56:39;2.43;;;1.40;;
15287;SDS011;7745;48.708;9.026;2024-03-22T16:59:06;2.80;;;1.53;;
15287;SDS011;7745;48.708;9.026;2024-03-22T17:01:34;3.37;;;1.90;;
15287;SDS011;7745;48.708;9.026;2024-03-22T17:04:01;6.03;;;2.10;;
15287;SDS011;7745;48.708;9.026;2024-03-22T17:06:27;6.40;;;2.00;;
15287;SDS011;7745;48.708;9.026;2024-03-22T17:08:54;2.53;;;1.50;;
15287;SDS011;7745;48.708;9.026;2024-03-22T17:11:20;3.50;;;1.50;;
15287;SDS011;7745;48.708;9.026;2024-03-22T17:13:47;3.93;;;2.20;;
15287;SDS011;7745;48.708;9.026;2024-03-22T17:16:12;2.80;;;1.60;;
15287;SDS011;7745;48.708;9.026;2024-03-22T17:18:41;4.10;;;1.90;;
15287;SDS011;7745;48.708;9.026;2024-03-22T17:21:06;4.67;;;3.10;;
15287;SDS011;7745;48.708;9.026;2024-03-22T17:23:33;4.27;;;2.80;;
15287;SDS011;7745;48.708;9.026;2024-03-22T17:26:00;5.53;;;3.23;;
15287;SDS011;7745;48.708;9.026;2024-03-22T17:28:26;3.60;;;2.40;;
15287;SDS011;7745;48.708;9.026;2024-03-22T17:30:52;3.57;;;1.90;;
15287;SDS011;7745;48.708;9.026;2024-03-22T17:33:19;4.20;;;2.10;;
15287;SDS011;7745;48.708;9.026;2024-03-22T17:35:47;3.50;;;1.33;;
15287;SDS011;7745;48.708;9.026;2024-03-22T17:38:13;3.07;;;1.80;;
15287;SDS011;7745;48.708;9.026;2024-03-22T17:40:40;8.37;;;1.90;;
15287;SDS011;7745;48.708;9.026;2024-03-22T17:43:07;3.07;;;1.60;;
15287;SDS011;7745;48.708;9.026;2024-03-22T17:45:34;4.40;;;2.07;;
15287;SDS011;7745;48.708;9.026;2024-03-22T17:48:02;4.97;;;1.90;;
15287;SDS011;7745;48.708;9.026;2024-03-22T17:50:27;6.20;;;1.90;;
15287;SDS011;7745;48.708;9.026;2024-03-22T17:52:56;4.50;;;1.80;;
15287;SDS011;7745;48.708;9.026;2024-03-22T17:55:21;3.43;;;1.43;;
15287;SDS011;7745;48.708;9.026;2024-03-22T17:57:48;2.17;;;1.27;;
15287;SDS011;7745;48.708;9.026;2024-03-22T18:00:14;6.07;;;1.70;;
15287;SDS011;7745;48.708;9.026;2024-03-22T18:02:41;3.27;;;1.80;;
15287;SDS011;7745;48.708;9.026;2024-03-22T18:05:07;4.10;;;1.93;;
15287;SDS011;7745;48.708;9.026;2024-03-22T18:07:34;3.97;;;1.93;;
15287;SDS011;7745;48.708;9.026;2024-03-22T18:10:01;3.10;;;1.80;;
15287;SDS011;7745;48.708;9.026;2024-03-22T18:12:28;3.73;;;1.80;;
15287;SDS011;7745;48.708;9.026;2024-03-22T18:14:54;4.20;;;2.00;;
15287;SDS011;7745;48.708;9.026;2024-03-22T18:17:21;3.47;;;2.10;;
15287;SDS011;7745;48.708;9.026;2024-03-22T18:19:46;5.43;;;1.90;;
15287;SDS011;7745;48.708;9.026;2024-03-22T18:22:15;3.83;;;2.23;;
15287;SDS011;7745;48.708;9.026;2024-03-22T18:24:41;5.23;;;2.00;;
15287;SDS011;7745;48.708;9.026;2024-03-22T18:27:10;4.00;;;2.57;;
15287;SDS011;7745;48.708;9.026;2024-03-22T18:29:36;5.00;;;2.23;;
15287;SDS011;7745;48.708;9.026;2024-03-22T18:32:03;3.57;;;1.90;;
15287;SDS011;7745;48.708;9.026;2024-03-22T18:34:29;3.17;;;2.27;;
15287;SDS011;7745;48.708;9.026;2024-03-22T18:36:56;4.43;;;2.80;;
15287;SDS011;7745;48.708;9.026;2024-03-22T18:39:22;4.10;;;2.70;;
15287;SDS011;7745;48.708;9.026;2024-03-22T18:41:49;6.70;;;2.67;;
15287;SDS011;7745;48.708;9.026;2024-03-22T18:44:16;3.57;;;2.37;;
15287;SDS011;7745;48.708;9.026;2024-03-22T18:46:43;5.40;;;2.47;;
15287;SDS011;7745;48.708;9.026;2024-03-22T18:49:10;4.20;;;1.80;;
15287;SDS011;7745;48.708;9.026;2024-03-22T18:51:36;5.13;;;2.40;;
15287;SDS011;7745;48.708;9.026;2024-03-22T18:54:02;3.27;;;2.20;;
15287;SDS011;7745;48.708;9.026;2024-03-22T18:56:29;5.87;;;2.40;;
15287;SDS011;7745;48.708;9.026;2024-03-22T18:58:55;2.70;;;1.90;;
15287;SDS011;7745;48.708;9.026;2024-03-22T19:01:23;3.90;;;2.50;;
15287;SDS011;7745;48.708;9.026;2024-03-22T19:03:49;5.87;;;2.57;;
15287;SDS011;7745;48.708;9.026;2024-03-22T19:06:16;9.00;;;3.20;;
15287;SDS011;7745;48.708;9.026;2024-03-22T19:08:41;4.43;;;2.20;;
15287;SDS011;7745;48.708;9.026;2024-03-22T19:11:08;2.77;;;1.93;;
15287;SDS011;7745;48.708;9.026;2024-03-22T19:13:34;4.80;;;2.77;;
15287;SDS011;7745;48.708;9.026;2024-03-22T19:16:01;2.23;;;1.60;;
15287;SDS011;7745;48.708;9.026;2024-03-22T19:18:29;3.60;;;2.00;;
15287;SDS011;7745;48.708;9.026;2024-03-22T19:20:56;3.27;;;2.17;;
15287;SDS011;7745;48.708;9.026;2024-03-22T19:23:21;2.77;;;2.33;;
15287;SDS011;7745;48.708;9.026;2024-03-22T19:25:48;3.47;;;2.27;;
15287;SDS011;7745;48.708;9.026;2024-03-22T19:28:14;2.73;;;2.40;;
15287;SDS011;7745;48.708;9.026;2024-03-22T19:30:41;6.37;;;3.37;;
15287;SDS011;7745;48.708;9.026;2024-03-22T19:33:07;4.00;;;2.80;;
15287;SDS011;7745;48.708;9.026;2024-03-22T19:35:35;3.13;;;1.80;;
15287;SDS011;7745;48.708;9.026;2024-03-22T19:38:01;2.97;;;1.77;;
15287;SDS011;7745;48.708;9.026;2024-03-22T19:40:28;4.20;;;2.40;;
15287;SDS011;7745;48.708;9.026;2024-03-22T19:42:54;3.40;;;1.90;;
15287;SDS011;7745;48.708;9.026;2024-03-22T19:45:22;2.60;;;1.77;;
15287;SDS011;7745;48.708;9.026;2024-03-22T19:47:48;4.30;;;1.90;;